sensor_id;sensor_type;location;lat;lon;timestamp;temperature;humidity
65582;DHT22;52231;40.090;18.348;2023-08-12T00:02:19;21.30;77.30
65582;DHT22;52231;40.090;18.348;2023-08-12T00:04:47;21.30;77.40
65582;DHT22;52231;40.090;18.348;2023-08-12T00:07:15;21.30;77.50
65582;DHT22;52231;40.090;18.348;2023-08-12T00:09:43;21.30;77.60
65582;DHT22;52231;40.090;18.348;2023-08-12T00:12:11;21.30;77.60
65582;DHT22;52231;40.090;18.348;2023-08-12T00:14:39;21.30;77.70
65582;DHT22;52231;40.090;18.348;2023-08-12T00:17:08;21.30;77.70
65582;DHT22;52231;40.090;18.348;2023-08-12T00:19:36;21.30;77.80
65582;DHT22;52231;40.090;18.348;2023-08-12T00:22:04;21.30;77.80
65582;DHT22;52231;40.090;18.348;2023-08-12T00:24:32;21.30;77.80
65582;DHT22;52231;40.090;18.348;2023-08-12T00:27:00;21.30;77.70
65582;DHT22;52231;40.090;18.348;2023-08-12T00:29:28;21.30;77.50
65582;DHT22;52231;40.090;18.348;2023-08-12T00:31:56;21.20;77.40
65582;DHT22;52231;40.090;18.348;2023-08-12T00:34:25;21.20;77.30
65582;DHT22;52231;40.090;18.348;2023-08-12T00:36:53;21.10;77.30
65582;DHT22;52231;40.090;18.348;2023-08-12T00:39:22;21.10;77.30
65582;DHT22;52231;40.090;18.348;2023-08-12T00:41:50;21.10;77.20
65582;DHT22;52231;40.090;18.348;2023-08-12T00:44:20;21.00;77.30
65582;DHT22;52231;40.090;18.348;2023-08-12T00:46:48;21.00;77.40
65582;DHT22;52231;40.090;18.348;2023-08-12T00:49:17;20.90;77.50
65582;DHT22;52231;40.090;18.348;2023-08-12T00:51:46;20.90;77.70
65582;DHT22;52231;40.090;18.348;2023-08-12T00:54:16;20.90;78.10
65582;DHT22;52231;40.090;18.348;2023-08-12T00:56:45;20.90;78.60
65582;DHT22;52231;40.090;18.348;2023-08-12T00:59:14;20.90;78.70
65582;DHT22;52231;40.090;18.348;2023-08-12T01:01:43;20.90;78.90
65582;DHT22;52231;40.090;18.348;2023-08-12T01:04:12;20.90;79.00
65582;DHT22;52231;40.090;18.348;2023-08-12T01:06:41;20.90;79.20
65582;DHT22;52231;40.090;18.348;2023-08-12T01:09:10;20.90;79.30
65582;DHT22;52231;40.090;18.348;2023-08-12T01:14:58;20.90;79.50
65582;DHT22;52231;40.090;18.348;2023-08-12T01:17:29;20.90;79.60
65582;DHT22;52231;40.090;18.348;2023-08-12T01:20:00;20.90;79.80
65582;DHT22;52231;40.090;18.348;2023-08-12T01:22:31;20.90;79.80
65582;DHT22;52231;40.090;18.348;2023-08-12T01:25:00;20.90;80.00
65582;DHT22;52231;40.090;18.348;2023-08-12T01:27:28;20.90;80.20
65582;DHT22;52231;40.090;18.348;2023-08-12T01:29:57;20.90;80.30
65582;DHT22;52231;40.090;18.348;2023-08-12T01:32:47;20.90;80.40
65582;DHT22;52231;40.090;18.348;2023-08-12T01:35:27;20.90;80.50
65582;DHT22;52231;40.090;18.348;2023-08-12T01:37:57;20.90;80.70
65582;DHT22;52231;40.090;18.348;2023-08-12T01:40:28;20.90;80.80
65582;DHT22;52231;40.090;18.348;2023-08-12T01:42:58;20.90;80.90
65582;DHT22;52231;40.090;18.348;2023-08-12T01:45:27;20.90;80.50
65582;DHT22;52231;40.090;18.348;2023-08-12T01:47:55;20.90;80.40
65582;DHT22;52231;40.090;18.348;2023-08-12T01:50:23;20.80;80.30
65582;DHT22;52231;40.090;18.348;2023-08-12T01:52:53;20.80;80.40
65582;DHT22;52231;40.090;18.348;2023-08-12T01:55:21;20.70;80.40
65582;DHT22;52231;40.090;18.348;2023-08-12T01:57:49;20.60;80.40
65582;DHT22;52231;40.090;18.348;2023-08-12T02:00:17;20.60;80.50
65582;DHT22;52231;40.090;18.348;2023-08-12T02:02:46;20.60;80.60
65582;DHT22;52231;40.090;18.348;2023-08-12T02:05:14;20.60;80.80
65582;DHT22;52231;40.090;18.348;2023-08-12T02:07:42;20.60;80.90
65582;DHT22;52231;40.090;18.348;2023-08-12T02:10:11;20.50;81.10
65582;DHT22;52231;40.090;18.348;2023-08-12T02:12:39;20.60;81.40
65582;DHT22;52231;40.090;18.348;2023-08-12T02:15:07;20.50;81.60
65582;DHT22;52231;40.090;18.348;2023-08-12T02:17:35;20.50;81.70
65582;DHT22;52231;40.090;18.348;2023-08-12T02:20:03;20.40;81.80
65582;DHT22;52231;40.090;18.348;2023-08-12T02:22:32;20.40;82.20
65582;DHT22;52231;40.090;18.348;2023-08-12T02:25:01;20.40;82.40
65582;DHT22;52231;40.090;18.348;2023-08-12T02:27:30;20.40;82.90
65582;DHT22;52231;40.090;18.348;2023-08-12T02:29:58;20.50;83.20
65582;DHT22;52231;40.090;18.348;2023-08-12T02:32:27;20.40;83.20
65582;DHT22;52231;40.090;18.348;2023-08-12T02:34:55;20.50;83.40
65582;DHT22;52231;40.090;18.348;2023-08-12T02:37:24;20.40;83.20
65582;DHT22;52231;40.090;18.348;2023-08-12T02:39:52;20.40;83.20
65582;DHT22;52231;40.090;18.348;2023-08-12T02:42:22;20.40;83.20
65582;DHT22;52231;40.090;18.348;2023-08-12T02:44:54;20.40;83.30
65582;DHT22;52231;40.090;18.348;2023-08-12T02:47:41;20.30;83.40
65582;DHT22;52231;40.090;18.348;2023-08-12T02:50:10;20.30;83.50
65582;DHT22;52231;40.090;18.348;2023-08-12T02:52:38;20.30;83.70
65582;DHT22;52231;40.090;18.348;2023-08-12T02:55:06;20.30;83.90
65582;DHT22;52231;40.090;18.348;2023-08-12T02:57:34;20.30;83.90
65582;DHT22;52231;40.090;18.348;2023-08-12T03:00:05;20.30;84.00
65582;DHT22;52231;40.090;18.348;2023-08-12T03:02:35;20.30;84.00
65582;DHT22;52231;40.090;18.348;2023-08-12T03:05:04;20.30;84.10
65582;DHT22;52231;40.090;18.348;2023-08-12T03:07:32;20.30;84.20
65582;DHT22;52231;40.090;18.348;2023-08-12T03:10:00;20.20;84.20
65582;DHT22;52231;40.090;18.348;2023-08-12T03:12:29;20.20;84.20
65582;DHT22;52231;40.090;18.348;2023-08-12T03:14:57;20.20;84.30
65582;DHT22;52231;40.090;18.348;2023-08-12T03:17:25;20.10;84.30
65582;DHT22;52231;40.090;18.348;2023-08-12T03:19:54;20.10;84.50
65582;DHT22;52231;40.090;18.348;2023-08-12T03:22:22;20.10;84.60
65582;DHT22;52231;40.090;18.348;2023-08-12T03:24:50;20.00;84.70
65582;DHT22;52231;40.090;18.348;2023-08-12T03:27:20;20.00;84.80
65582;DHT22;52231;40.090;18.348;2023-08-12T03:29:50;20.00;84.90
65582;DHT22;52231;40.090;18.348;2023-08-12T03:32:19;20.00;85.10
65582;DHT22;52231;40.090;18.348;2023-08-12T03:34:47;19.90;85.20
65582;DHT22;52231;40.090;18.348;2023-08-12T03:37:19;19.90;85.30
65582;DHT22;52231;40.090;18.348;2023-08-12T03:39:50;19.90;85.40
65582;DHT22;52231;40.090;18.348;2023-08-12T03:42:20;19.90;85.40
65582;DHT22;52231;40.090;18.348;2023-08-12T03:44:49;19.90;85.40
65582;DHT22;52231;40.090;18.348;2023-08-12T03:47:17;19.80;85.50
65582;DHT22;52231;40.090;18.348;2023-08-12T03:49:50;19.80;85.50
65582;DHT22;52231;40.090;18.348;2023-08-12T03:52:19;19.80;85.60
65582;DHT22;52231;40.090;18.348;2023-08-12T03:54:47;19.80;85.70
65582;DHT22;52231;40.090;18.348;2023-08-12T03:57:15;19.80;85.80
65582;DHT22;52231;40.090;18.348;2023-08-12T03:59:45;19.80;85.90
65582;DHT22;52231;40.090;18.348;2023-08-12T04:02:13;19.70;86.00
65582;DHT22;52231;40.090;18.348;2023-08-12T04:04:41;19.80;86.10
65582;DHT22;52231;40.090;18.348;2023-08-12T04:07:11;19.80;86.20
65582;DHT22;52231;40.090;18.348;2023-08-12T04:09:40;19.80;86.30
65582;DHT22;52231;40.090;18.348;2023-08-12T04:12:08;19.80;86.40
65582;DHT22;52231;40.090;18.348;2023-08-12T04:14:36;19.90;86.50
65582;DHT22;52231;40.090;18.348;2023-08-12T04:17:04;19.90;86.50
65582;DHT22;52231;40.090;18.348;2023-08-12T04:19:32;20.10;86.50
65582;DHT22;52231;40.090;18.348;2023-08-12T04:22:03;20.20;86.40
65582;DHT22;52231;40.090;18.348;2023-08-12T04:24:31;20.30;86.20
65582;DHT22;52231;40.090;18.348;2023-08-12T04:27:00;20.40;86.00
65582;DHT22;52231;40.090;18.348;2023-08-12T04:29:28;20.50;85.80
65582;DHT22;52231;40.090;18.348;2023-08-12T04:31:56;20.70;85.50
65582;DHT22;52231;40.090;18.348;2023-08-12T04:34:24;20.90;85.10
65582;DHT22;52231;40.090;18.348;2023-08-12T04:36:54;21.10;84.40
65582;DHT22;52231;40.090;18.348;2023-08-12T04:39:22;21.30;84.10
65582;DHT22;52231;40.090;18.348;2023-08-12T04:41:51;21.30;83.70
65582;DHT22;52231;40.090;18.348;2023-08-12T04:44:19;21.50;83.20
65582;DHT22;52231;40.090;18.348;2023-08-12T04:46:47;21.70;82.60
65582;DHT22;52231;40.090;18.348;2023-08-12T04:49:16;21.90;81.90
65582;DHT22;52231;40.090;18.348;2023-08-12T04:51:45;22.00;81.40
65582;DHT22;52231;40.090;18.348;2023-08-12T04:54:13;22.20;80.90
65582;DHT22;52231;40.090;18.348;2023-08-12T04:56:42;22.40;80.30
65582;DHT22;52231;40.090;18.348;2023-08-12T04:59:11;22.60;79.70
65582;DHT22;52231;40.090;18.348;2023-08-12T05:01:40;22.80;79.20
65582;DHT22;52231;40.090;18.348;2023-08-12T05:04:15;23.00;78.40
65582;DHT22;52231;40.090;18.348;2023-08-12T05:06:43;23.30;77.50
65582;DHT22;52231;40.090;18.348;2023-08-12T05:09:14;23.60;76.30
65582;DHT22;52231;40.090;18.348;2023-08-12T05:11:42;24.00;75.10
65582;DHT22;52231;40.090;18.348;2023-08-12T05:14:11;24.40;73.90
65582;DHT22;52231;40.090;18.348;2023-08-12T05:16:39;24.70;72.90
65582;DHT22;52231;40.090;18.348;2023-08-12T05:19:07;24.90;71.80
65582;DHT22;52231;40.090;18.348;2023-08-12T05:21:36;25.30;70.90
65582;DHT22;52231;40.090;18.348;2023-08-12T05:24:04;25.60;69.30
65582;DHT22;52231;40.090;18.348;2023-08-12T05:26:33;25.80;68.80
65582;DHT22;52231;40.090;18.348;2023-08-12T05:29:02;26.00;68.00
65582;DHT22;52231;40.090;18.348;2023-08-12T05:31:30;26.00;67.80
65582;DHT22;52231;40.090;18.348;2023-08-12T05:33:58;26.30;67.10
65582;DHT22;52231;40.090;18.348;2023-08-12T05:36:26;26.50;66.30
65582;DHT22;52231;40.090;18.348;2023-08-12T05:38:54;26.60;66.10
65582;DHT22;52231;40.090;18.348;2023-08-12T05:41:22;26.80;65.70
65582;DHT22;52231;40.090;18.348;2023-08-12T05:43:50;26.80;65.90
65582;DHT22;52231;40.090;18.348;2023-08-12T05:46:18;27.20;65.10
65582;DHT22;52231;40.090;18.348;2023-08-12T05:48:47;27.40;64.30
65582;DHT22;52231;40.090;18.348;2023-08-12T05:51:15;27.70;63.70
65582;DHT22;52231;40.090;18.348;2023-08-12T05:53:43;27.70;63.20
65582;DHT22;52231;40.090;18.348;2023-08-12T05:56:12;27.80;62.90
65582;DHT22;52231;40.090;18.348;2023-08-12T05:58:40;28.00;62.80
65582;DHT22;52231;40.090;18.348;2023-08-12T06:01:11;28.00;62.00
65582;DHT22;52231;40.090;18.348;2023-08-12T06:03:39;28.00;62.00
65582;DHT22;52231;40.090;18.348;2023-08-12T06:06:07;28.30;61.40
65582;DHT22;52231;40.090;18.348;2023-08-12T06:08:35;28.30;61.10
65582;DHT22;52231;40.090;18.348;2023-08-12T06:11:04;28.50;59.90
65582;DHT22;52231;40.090;18.348;2023-08-12T06:13:35;28.60;58.90
65582;DHT22;52231;40.090;18.348;2023-08-12T06:16:03;28.70;58.50
65582;DHT22;52231;40.090;18.348;2023-08-12T06:18:32;28.90;58.60
65582;DHT22;52231;40.090;18.348;2023-08-12T06:21:01;29.10;56.90
65582;DHT22;52231;40.090;18.348;2023-08-12T06:23:29;29.30;56.70
65582;DHT22;52231;40.090;18.348;2023-08-12T06:26:05;29.40;56.20
65582;DHT22;52231;40.090;18.348;2023-08-12T06:28:33;29.50;55.40
65582;DHT22;52231;40.090;18.348;2023-08-12T06:31:02;29.50;54.50
65582;DHT22;52231;40.090;18.348;2023-08-12T06:33:31;29.70;55.10
65582;DHT22;52231;40.090;18.348;2023-08-12T06:35:59;29.80;54.10
65582;DHT22;52231;40.090;18.348;2023-08-12T06:38:27;29.90;53.10
65582;DHT22;52231;40.090;18.348;2023-08-12T06:40:55;30.00;52.30
65582;DHT22;52231;40.090;18.348;2023-08-12T06:43:23;30.20;51.60
65582;DHT22;52231;40.090;18.348;2023-08-12T06:45:52;30.20;52.20
65582;DHT22;52231;40.090;18.348;2023-08-12T06:48:20;30.30;52.10
65582;DHT22;52231;40.090;18.348;2023-08-12T06:50:55;30.30;51.70
65582;DHT22;52231;40.090;18.348;2023-08-12T06:53:25;30.40;52.10
65582;DHT22;52231;40.090;18.348;2023-08-12T06:55:54;30.70;52.30
65582;DHT22;52231;40.090;18.348;2023-08-12T06:58:22;30.80;51.60
65582;DHT22;52231;40.090;18.348;2023-08-12T07:00:50;30.90;51.40
65582;DHT22;52231;40.090;18.348;2023-08-12T07:03:21;31.00;51.20
65582;DHT22;52231;40.090;18.348;2023-08-12T07:05:50;31.10;50.00
65582;DHT22;52231;40.090;18.348;2023-08-12T07:08:18;31.20;49.20
65582;DHT22;52231;40.090;18.348;2023-08-12T07:10:46;31.30;49.40
65582;DHT22;52231;40.090;18.348;2023-08-12T07:13:14;31.40;49.50
65582;DHT22;52231;40.090;18.348;2023-08-12T07:15:43;31.70;48.10
65582;DHT22;52231;40.090;18.348;2023-08-12T07:18:11;31.50;48.70
65582;DHT22;52231;40.090;18.348;2023-08-12T07:20:39;31.60;47.60
65582;DHT22;52231;40.090;18.348;2023-08-12T07:23:07;31.80;46.10
65582;DHT22;52231;40.090;18.348;2023-08-12T07:25:38;31.90;46.30
65582;DHT22;52231;40.090;18.348;2023-08-12T07:28:07;32.00;46.20
65582;DHT22;52231;40.090;18.348;2023-08-12T07:30:35;32.00;46.90
65582;DHT22;52231;40.090;18.348;2023-08-12T07:33:04;32.30;46.80
65582;DHT22;52231;40.090;18.348;2023-08-12T07:35:33;32.50;44.90
65582;DHT22;52231;40.090;18.348;2023-08-12T07:38:01;32.60;44.50
65582;DHT22;52231;40.090;18.348;2023-08-12T07:40:30;32.70;44.70
65582;DHT22;52231;40.090;18.348;2023-08-12T07:42:59;32.60;45.50
65582;DHT22;52231;40.090;18.348;2023-08-12T07:45:27;32.90;44.30
65582;DHT22;52231;40.090;18.348;2023-08-12T07:47:55;32.80;42.20
65582;DHT22;52231;40.090;18.348;2023-08-12T07:50:24;32.90;43.00
65582;DHT22;52231;40.090;18.348;2023-08-12T07:52:52;33.20;41.60
65582;DHT22;52231;40.090;18.348;2023-08-12T07:55:23;33.00;41.00
65582;DHT22;52231;40.090;18.348;2023-08-12T07:57:53;32.90;41.50
65582;DHT22;52231;40.090;18.348;2023-08-12T08:00:21;33.00;40.90
65582;DHT22;52231;40.090;18.348;2023-08-12T08:02:49;33.00;40.90
65582;DHT22;52231;40.090;18.348;2023-08-12T08:05:17;33.00;41.10
65582;DHT22;52231;40.090;18.348;2023-08-12T08:07:45;33.40;40.80
65582;DHT22;52231;40.090;18.348;2023-08-12T08:10:13;33.40;40.50
65582;DHT22;52231;40.090;18.348;2023-08-12T08:12:41;33.40;41.00
65582;DHT22;52231;40.090;18.348;2023-08-12T08:15:10;33.50;39.10
65582;DHT22;52231;40.090;18.348;2023-08-12T08:17:38;33.60;38.60
65582;DHT22;52231;40.090;18.348;2023-08-12T08:20:06;33.80;37.10
65582;DHT22;52231;40.090;18.348;2023-08-12T08:22:34;33.80;36.30
65582;DHT22;52231;40.090;18.348;2023-08-12T08:25:04;33.80;34.80
65582;DHT22;52231;40.090;18.348;2023-08-12T08:27:32;33.80;35.90
65582;DHT22;52231;40.090;18.348;2023-08-12T08:30:00;33.90;35.10
65582;DHT22;52231;40.090;18.348;2023-08-12T08:32:29;34.40;35.60
65582;DHT22;52231;40.090;18.348;2023-08-12T08:34:57;34.80;35.30
65582;DHT22;52231;40.090;18.348;2023-08-12T08:37:25;34.60;34.10
65582;DHT22;52231;40.090;18.348;2023-08-12T08:39:53;34.60;34.30
65582;DHT22;52231;40.090;18.348;2023-08-12T08:42:24;34.70;34.70
65582;DHT22;52231;40.090;18.348;2023-08-12T08:44:53;34.70;34.80
65582;DHT22;52231;40.090;18.348;2023-08-12T08:47:26;34.40;35.10
65582;DHT22;52231;40.090;18.348;2023-08-12T08:49:58;34.50;35.00
65582;DHT22;52231;40.090;18.348;2023-08-12T08:52:27;34.30;34.20
65582;DHT22;52231;40.090;18.348;2023-08-12T08:54:56;34.30;35.70
65582;DHT22;52231;40.090;18.348;2023-08-12T08:57:28;34.60;35.20
65582;DHT22;52231;40.090;18.348;2023-08-12T09:00:06;34.80;35.10
65582;DHT22;52231;40.090;18.348;2023-08-12T09:02:44;34.90;34.30
65582;DHT22;52231;40.090;18.348;2023-08-12T09:05:13;35.10;34.60
65582;DHT22;52231;40.090;18.348;2023-08-12T09:07:43;35.30;33.80
65582;DHT22;52231;40.090;18.348;2023-08-12T09:10:12;34.90;34.20
65582;DHT22;52231;40.090;18.348;2023-08-12T09:12:43;34.70;34.70
65582;DHT22;52231;40.090;18.348;2023-08-12T09:15:11;35.10;35.10
65582;DHT22;52231;40.090;18.348;2023-08-12T09:17:39;35.30;34.10
65582;DHT22;52231;40.090;18.348;2023-08-12T09:20:07;35.30;34.70
65582;DHT22;52231;40.090;18.348;2023-08-12T09:22:56;35.30;34.10
65582;DHT22;52231;40.090;18.348;2023-08-12T09:25:31;35.70;34.50
65582;DHT22;52231;40.090;18.348;2023-08-12T09:28:28;35.50;33.40
65582;DHT22;52231;40.090;18.348;2023-08-12T09:31:02;35.10;34.10
65582;DHT22;52231;40.090;18.348;2023-08-12T09:33:46;35.30;35.10
65582;DHT22;52231;40.090;18.348;2023-08-12T09:36:15;35.30;33.60
65582;DHT22;52231;40.090;18.348;2023-08-12T09:38:44;35.50;34.40
65582;DHT22;52231;40.090;18.348;2023-08-12T09:41:12;35.40;33.90
65582;DHT22;52231;40.090;18.348;2023-08-12T09:43:41;35.30;34.20
65582;DHT22;52231;40.090;18.348;2023-08-12T09:46:11;35.10;34.00
65582;DHT22;52231;40.090;18.348;2023-08-12T09:48:43;34.90;34.60
65582;DHT22;52231;40.090;18.348;2023-08-12T09:51:11;35.10;33.70
65582;DHT22;52231;40.090;18.348;2023-08-12T09:53:40;35.50;33.10
65582;DHT22;52231;40.090;18.348;2023-08-12T09:56:11;35.80;32.90
65582;DHT22;52231;40.090;18.348;2023-08-12T09:58:40;35.40;34.40
65582;DHT22;52231;40.090;18.348;2023-08-12T10:01:11;35.30;33.40
65582;DHT22;52231;40.090;18.348;2023-08-12T10:03:42;35.40;34.00
65582;DHT22;52231;40.090;18.348;2023-08-12T10:06:13;35.10;34.70
65582;DHT22;52231;40.090;18.348;2023-08-12T10:08:46;35.30;34.60
65582;DHT22;52231;40.090;18.348;2023-08-12T10:11:15;34.90;35.60
65582;DHT22;52231;40.090;18.348;2023-08-12T10:13:43;35.00;34.80
65582;DHT22;52231;40.090;18.348;2023-08-12T10:16:12;34.90;35.30
65582;DHT22;52231;40.090;18.348;2023-08-12T10:18:40;34.90;35.30
65582;DHT22;52231;40.090;18.348;2023-08-12T10:21:10;35.30;35.20
65582;DHT22;52231;40.090;18.348;2023-08-12T10:23:42;35.30;33.70
65582;DHT22;52231;40.090;18.348;2023-08-12T10:26:17;35.30;33.80
65582;DHT22;52231;40.090;18.348;2023-08-12T10:28:49;35.30;34.20
65582;DHT22;52231;40.090;18.348;2023-08-12T10:31:19;35.40;33.50
65582;DHT22;52231;40.090;18.348;2023-08-12T10:33:48;35.50;33.70
65582;DHT22;52231;40.090;18.348;2023-08-12T10:36:17;35.60;34.80
65582;DHT22;52231;40.090;18.348;2023-08-12T10:38:55;35.80;33.60
65582;DHT22;52231;40.090;18.348;2023-08-12T10:41:26;35.70;32.20
65582;DHT22;52231;40.090;18.348;2023-08-12T10:44:00;35.30;31.90
65582;DHT22;52231;40.090;18.348;2023-08-12T10:46:36;35.50;32.70
65582;DHT22;52231;40.090;18.348;2023-08-12T10:49:07;35.30;33.30
65582;DHT22;52231;40.090;18.348;2023-08-12T10:51:51;35.40;32.70
65582;DHT22;52231;40.090;18.348;2023-08-12T10:54:26;35.30;31.90
65582;DHT22;52231;40.090;18.348;2023-08-12T10:57:08;35.40;32.00
65582;DHT22;52231;40.090;18.348;2023-08-12T10:59:54;35.30;32.00
65582;DHT22;52231;40.090;18.348;2023-08-12T11:02:51;35.30;32.00
65582;DHT22;52231;40.090;18.348;2023-08-12T11:05:25;35.30;31.90
65582;DHT22;52231;40.090;18.348;2023-08-12T11:08:05;35.60;31.10
65582;DHT22;52231;40.090;18.348;2023-08-12T11:10:34;35.90;31.40
65582;DHT22;52231;40.090;18.348;2023-08-12T11:13:03;35.80;30.80
65582;DHT22;52231;40.090;18.348;2023-08-12T11:15:40;36.00;30.30
65582;DHT22;52231;40.090;18.348;2023-08-12T11:18:12;36.30;30.10
65582;DHT22;52231;40.090;18.348;2023-08-12T11:20:40;36.10;30.10
65582;DHT22;52231;40.090;18.348;2023-08-12T11:23:09;36.30;30.00
65582;DHT22;52231;40.090;18.348;2023-08-12T11:25:39;35.90;30.30
65582;DHT22;52231;40.090;18.348;2023-08-12T11:28:08;35.70;31.20
65582;DHT22;52231;40.090;18.348;2023-08-12T11:30:36;35.80;31.20
65582;DHT22;52231;40.090;18.348;2023-08-12T11:33:04;36.20;31.20
65582;DHT22;52231;40.090;18.348;2023-08-12T11:35:32;36.10;31.20
65582;DHT22;52231;40.090;18.348;2023-08-12T11:38:02;36.20;30.50
65582;DHT22;52231;40.090;18.348;2023-08-12T11:40:32;36.10;30.90
65582;DHT22;52231;40.090;18.348;2023-08-12T11:43:01;36.40;30.50
65582;DHT22;52231;40.090;18.348;2023-08-12T11:45:32;36.60;30.30
65582;DHT22;52231;40.090;18.348;2023-08-12T11:48:00;36.40;30.60
65582;DHT22;52231;40.090;18.348;2023-08-12T11:50:28;36.40;31.10
65582;DHT22;52231;40.090;18.348;2023-08-12T11:52:57;36.30;31.10
65582;DHT22;52231;40.090;18.348;2023-08-12T11:55:26;36.20;31.60
65582;DHT22;52231;40.090;18.348;2023-08-12T11:57:54;36.10;30.90
65582;DHT22;52231;40.090;18.348;2023-08-12T12:00:33;36.10;31.30
65582;DHT22;52231;40.090;18.348;2023-08-12T12:03:01;36.20;31.10
65582;DHT22;52231;40.090;18.348;2023-08-12T12:05:30;36.00;31.50
65582;DHT22;52231;40.090;18.348;2023-08-12T12:08:01;36.60;31.00
65582;DHT22;52231;40.090;18.348;2023-08-12T12:10:32;36.60;31.20
65582;DHT22;52231;40.090;18.348;2023-08-12T12:13:03;36.50;30.90
65582;DHT22;52231;40.090;18.348;2023-08-12T12:15:38;36.50;31.00
65582;DHT22;52231;40.090;18.348;2023-08-12T12:18:13;36.30;31.10
65582;DHT22;52231;40.090;18.348;2023-08-12T12:20:56;36.10;31.30
65582;DHT22;52231;40.090;18.348;2023-08-12T12:23:29;35.90;31.40
65582;DHT22;52231;40.090;18.348;2023-08-12T12:26:03;36.20;31.20
65582;DHT22;52231;40.090;18.348;2023-08-12T12:28:31;36.20;31.30
65582;DHT22;52231;40.090;18.348;2023-08-12T12:31:00;36.40;31.20
65582;DHT22;52231;40.090;18.348;2023-08-12T12:33:28;35.80;31.90
65582;DHT22;52231;40.090;18.348;2023-08-12T12:35:57;35.60;32.80
65582;DHT22;52231;40.090;18.348;2023-08-12T12:38:28;35.30;33.20
65582;DHT22;52231;40.090;18.348;2023-08-12T12:40:56;35.40;32.70
65582;DHT22;52231;40.090;18.348;2023-08-12T12:43:24;35.80;32.40
65582;DHT22;52231;40.090;18.348;2023-08-12T12:45:53;35.90;33.30
65582;DHT22;52231;40.090;18.348;2023-08-12T12:48:21;36.10;33.30
65582;DHT22;52231;40.090;18.348;2023-08-12T12:50:49;36.20;32.60
65582;DHT22;52231;40.090;18.348;2023-08-12T12:53:17;36.20;33.20
65582;DHT22;52231;40.090;18.348;2023-08-12T12:55:46;36.00;32.70
65582;DHT22;52231;40.090;18.348;2023-08-12T12:58:14;35.60;33.10
65582;DHT22;52231;40.090;18.348;2023-08-12T13:00:44;35.60;33.20
65582;DHT22;52231;40.090;18.348;2023-08-12T13:03:12;35.50;33.70
65582;DHT22;52231;40.090;18.348;2023-08-12T13:05:40;35.20;33.30
65582;DHT22;52231;40.090;18.348;2023-08-12T13:08:08;34.70;34.30
65582;DHT22;52231;40.090;18.348;2023-08-12T13:10:36;34.70;34.50
65582;DHT22;52231;40.090;18.348;2023-08-12T13:13:05;34.70;35.00
65582;DHT22;52231;40.090;18.348;2023-08-12T13:15:36;34.50;35.50
65582;DHT22;52231;40.090;18.348;2023-08-12T13:18:05;34.50;34.60
65582;DHT22;52231;40.090;18.348;2023-08-12T13:20:33;34.20;35.30
65582;DHT22;52231;40.090;18.348;2023-08-12T13:23:01;34.60;35.00
65582;DHT22;52231;40.090;18.348;2023-08-12T13:25:36;34.40;34.90
65582;DHT22;52231;40.090;18.348;2023-08-12T13:28:05;34.40;34.90
65582;DHT22;52231;40.090;18.348;2023-08-12T13:30:33;34.40;33.90
65582;DHT22;52231;40.090;18.348;2023-08-12T13:33:03;34.40;35.20
65582;DHT22;52231;40.090;18.348;2023-08-12T13:35:32;34.30;34.80
65582;DHT22;52231;40.090;18.348;2023-08-12T13:38:00;33.90;35.30
65582;DHT22;52231;40.090;18.348;2023-08-12T13:40:28;33.90;35.10
65582;DHT22;52231;40.090;18.348;2023-08-12T13:42:56;33.90;34.50
65582;DHT22;52231;40.090;18.348;2023-08-12T13:45:25;34.10;34.00
65582;DHT22;52231;40.090;18.348;2023-08-12T13:47:54;34.40;33.70
65582;DHT22;52231;40.090;18.348;2023-08-12T13:50:22;34.50;33.80
65582;DHT22;52231;40.090;18.348;2023-08-12T13:52:51;34.10;34.00
65582;DHT22;52231;40.090;18.348;2023-08-12T13:55:19;34.00;34.70
65582;DHT22;52231;40.090;18.348;2023-08-12T13:57:47;34.10;34.50
65582;DHT22;52231;40.090;18.348;2023-08-12T14:00:15;33.80;34.60
65582;DHT22;52231;40.090;18.348;2023-08-12T14:02:45;33.80;34.40
65582;DHT22;52231;40.090;18.348;2023-08-12T14:05:15;33.70;34.50
65582;DHT22;52231;40.090;18.348;2023-08-12T14:07:43;33.20;34.80
65582;DHT22;52231;40.090;18.348;2023-08-12T14:10:11;32.90;36.00
65582;DHT22;52231;40.090;18.348;2023-08-12T14:12:40;32.80;36.10
65582;DHT22;52231;40.090;18.348;2023-08-12T14:15:08;32.50;37.50
65582;DHT22;52231;40.090;18.348;2023-08-12T14:17:36;32.30;37.60
65582;DHT22;52231;40.090;18.348;2023-08-12T14:20:06;32.20;37.40
65582;DHT22;52231;40.090;18.348;2023-08-12T14:22:35;32.00;37.30
65582;DHT22;52231;40.090;18.348;2023-08-12T14:25:04;32.20;37.40
65582;DHT22;52231;40.090;18.348;2023-08-12T14:27:32;32.00;37.90
65582;DHT22;52231;40.090;18.348;2023-08-12T14:30:00;31.90;37.40
65582;DHT22;52231;40.090;18.348;2023-08-12T14:32:28;31.70;37.60
65582;DHT22;52231;40.090;18.348;2023-08-12T14:34:57;31.50;37.70
65582;DHT22;52231;40.090;18.348;2023-08-12T14:37:25;31.30;37.50
65582;DHT22;52231;40.090;18.348;2023-08-12T14:39:53;31.10;38.50
65582;DHT22;52231;40.090;18.348;2023-08-12T14:42:21;31.00;39.00
65582;DHT22;52231;40.090;18.348;2023-08-12T14:44:49;30.80;39.50
65582;DHT22;52231;40.090;18.348;2023-08-12T14:47:17;30.80;39.60
65582;DHT22;52231;40.090;18.348;2023-08-12T14:49:46;30.90;39.10
65582;DHT22;52231;40.090;18.348;2023-08-12T14:52:18;30.80;39.40
65582;DHT22;52231;40.090;18.348;2023-08-12T14:54:47;30.80;39.10
65582;DHT22;52231;40.090;18.348;2023-08-12T14:57:15;30.70;38.40
65582;DHT22;52231;40.090;18.348;2023-08-12T14:59:43;30.60;38.60
65582;DHT22;52231;40.090;18.348;2023-08-12T15:02:12;30.50;39.20
65582;DHT22;52231;40.090;18.348;2023-08-12T15:04:40;30.60;39.40
65582;DHT22;52231;40.090;18.348;2023-08-12T15:07:08;30.40;39.90
65582;DHT22;52231;40.090;18.348;2023-08-12T15:09:37;30.40;40.10
65582;DHT22;52231;40.090;18.348;2023-08-12T15:12:05;30.40;39.70
65582;DHT22;52231;40.090;18.348;2023-08-12T15:14:34;30.40;40.00
65582;DHT22;52231;40.090;18.348;2023-08-12T15:17:02;30.50;39.70
65582;DHT22;52231;40.090;18.348;2023-08-12T15:19:30;30.50;39.50
65582;DHT22;52231;40.090;18.348;2023-08-12T15:21:58;30.20;39.90
65582;DHT22;52231;40.090;18.348;2023-08-12T15:24:32;30.00;40.90
65582;DHT22;52231;40.090;18.348;2023-08-12T15:27:00;30.00;40.70
65582;DHT22;52231;40.090;18.348;2023-08-12T15:29:28;30.00;40.90
65582;DHT22;52231;40.090;18.348;2023-08-12T15:31:57;29.90;40.90
65582;DHT22;52231;40.090;18.348;2023-08-12T15:34:26;29.80;40.30